createdAt,value
2023-01-19T00:00:28.682Z,8.95
2023-01-19T00:03:31.239Z,8.45
2023-01-19T00:06:33.496Z,8.68
2023-01-19T00:09:38.219Z,8.52
2023-01-19T00:12:40.442Z,9.02
2023-01-19T00:15:43.476Z,7.37
2023-01-19T00:18:45.935Z,7.95
2023-01-19T00:21:48.868Z,8.75
2023-01-19T00:24:51.435Z,7.75
2023-01-19T00:27:54.214Z,9.07
2023-01-19T00:30:56.804Z,7.87
2023-01-19T00:33:59.938Z,8.25
2023-01-19T00:37:04.105Z,7.90
2023-01-19T00:40:07.568Z,7.30
2023-01-19T00:43:10.159Z,7.70
2023-01-19T00:46:12.772Z,8.57
2023-01-19T00:49:15.320Z,7.50
2023-01-19T00:52:17.863Z,6.97
2023-01-19T00:55:20.492Z,6.72
2023-01-19T00:58:23.427Z,6.62
2023-01-19T01:01:45.312Z,7.40
2023-01-19T01:04:48.115Z,6.43
2023-01-19T01:07:50.818Z,6.80
2023-01-19T01:10:54.975Z,7.03
2023-01-19T01:13:57.151Z,6.20
2023-01-19T01:17:01.626Z,5.15
2023-01-19T01:20:04.934Z,5.60
2023-01-19T01:23:07.610Z,5.43
2023-01-19T01:26:10.299Z,4.82
2023-01-19T01:29:13.336Z,4.25
2023-01-19T01:32:17.475Z,5.05
2023-01-19T01:35:20.645Z,4.43
2023-01-19T01:38:23.170Z,4.28
2023-01-19T01:41:27.516Z,4.15
2023-01-19T01:44:51.951Z,3.58
2023-01-19T01:48:00.156Z,3.10
2023-01-19T01:51:24.363Z,2.53
2023-01-19T01:54:30.891Z,2.58
2023-01-19T01:57:37.179Z,2.15
2023-01-19T02:00:59.224Z,2.05
2023-01-19T02:04:02.454Z,1.87
2023-01-19T02:07:23.221Z,1.80
2023-01-19T02:10:44.651Z,1.60
2023-01-19T02:13:47.719Z,1.30
2023-01-19T02:16:50.468Z,1.35
2023-01-19T02:19:53.872Z,1.40
2023-01-19T02:23:01.841Z,1.40
2023-01-19T02:26:05.888Z,1.25
2023-01-19T02:29:11.541Z,1.20
2023-01-19T02:32:13.910Z,0.77
2023-01-19T02:35:16.925Z,1.45
2023-01-19T02:38:21.215Z,0.90
2023-01-19T02:41:28.454Z,1.10
2023-01-19T02:44:32.264Z,1.00
2023-01-19T02:47:50.732Z,0.68
2023-01-19T02:51:08.302Z,0.60
2023-01-19T02:54:23.062Z,0.40
2023-01-19T02:57:31.475Z,0.60
2023-01-19T03:04:16.960Z,0.50
2023-01-19T03:07:38.245Z,0.50
2023-01-19T03:10:59.713Z,0.47
2023-01-19T03:14:18.466Z,0.57
2023-01-19T03:17:22.337Z,0.52
2023-01-19T03:20:25.534Z,0.50
2023-01-19T03:23:31.759Z,0.40
2023-01-19T03:26:41.036Z,0.75
2023-01-19T03:29:50.884Z,0.30
2023-01-19T03:33:03.405Z,0.45
2023-01-19T03:36:15.020Z,0.40
2023-01-19T03:39:22.517Z,0.30
2023-01-19T03:42:26.248Z,0.32
2023-01-19T03:45:33.427Z,0.37
2023-01-19T03:48:36.041Z,1.12
2023-01-19T03:51:39.782Z,0.40
2023-01-19T03:54:42.301Z,0.35
2023-01-19T03:57:45.303Z,0.30
2023-01-19T04:00:47.681Z,0.40
2023-01-19T04:03:51.308Z,0.25
2023-01-19T04:06:53.576Z,0.17
2023-01-19T04:09:56.451Z,0.37
2023-01-19T04:13:00.568Z,0.25
2023-01-19T04:16:05.006Z,0.30
2023-01-19T04:19:07.340Z,0.20
2023-01-19T04:22:10.516Z,0.30
2023-01-19T04:25:12.794Z,0.28
2023-01-19T04:28:15.683Z,0.60
2023-01-19T04:31:19.389Z,0.57
2023-01-19T04:34:22.072Z,0.40
2023-01-19T04:37:24.375Z,0.50
2023-01-19T04:40:26.967Z,0.45
2023-01-19T04:43:29.217Z,0.50
2023-01-19T04:46:31.872Z,0.40
2023-01-19T04:49:34.075Z,0.30
2023-01-19T04:52:36.662Z,0.20
2023-01-19T04:55:39.353Z,0.30
2023-01-19T04:58:41.909Z,0.30
2023-01-19T05:01:44.108Z,3.37
2023-01-19T05:04:46.960Z,0.60
2023-01-19T05:07:49.176Z,0.55
2023-01-19T05:10:52.117Z,0.50
2023-01-19T05:13:54.516Z,0.40
2023-01-19T05:16:57.762Z,0.65
2023-01-19T05:20:00.134Z,0.40
2023-01-19T05:23:03.341Z,0.30
2023-01-19T05:26:05.993Z,0.60
2023-01-19T05:29:10.280Z,0.22
2023-01-19T05:32:13.721Z,0.25
2023-01-19T05:35:20.215Z,0.30
2023-01-19T05:38:35.501Z,0.10
2023-01-19T05:41:38.589Z,0.20
2023-01-19T05:44:41.002Z,0.20
2023-01-19T05:47:43.839Z,0.20
2023-01-19T05:50:46.189Z,0.20
2023-01-19T05:53:48.677Z,0.30
2023-01-19T05:56:50.839Z,0.30
2023-01-19T05:59:53.305Z,0.40
2023-01-19T06:02:55.769Z,0.30
2023-01-19T06:06:03.457Z,0.22
2023-01-19T06:09:07.861Z,0.50
2023-01-19T06:12:10.733Z,1.10
2023-01-19T06:15:14.483Z,0.50
2023-01-19T06:18:17.188Z,0.45
2023-01-19T06:21:19.623Z,0.50
2023-01-19T06:24:23.143Z,0.43
2023-01-19T06:27:25.873Z,0.57
2023-01-19T06:30:29.101Z,0.20
2023-01-19T06:33:31.845Z,0.35
2023-01-19T06:36:34.723Z,0.40
2023-01-19T06:39:40.724Z,0.55
2023-01-19T06:42:43.443Z,0.50
2023-01-19T06:45:46.385Z,0.30
2023-01-19T06:48:49.785Z,0.60
2023-01-19T06:51:52.319Z,0.70
2023-01-19T06:54:55.551Z,0.70
2023-01-19T06:58:00.644Z,0.90
2023-01-19T07:01:07.745Z,0.90
2023-01-19T07:04:14.066Z,1.17
2023-01-19T07:07:17.957Z,1.30
2023-01-19T07:10:21.105Z,1.50
2023-01-19T07:13:25.140Z,1.60
2023-01-19T07:16:27.854Z,1.40
2023-01-19T07:19:32.353Z,1.67
2023-01-19T07:54:42.239Z,2.12
2023-01-19T07:57:51.054Z,1.85
2023-01-19T08:00:53.742Z,2.10
2023-01-19T08:03:56.368Z,2.00
2023-01-19T08:06:58.744Z,2.25
2023-01-19T08:10:01.289Z,2.58
2023-01-19T08:13:03.868Z,2.40
2023-01-19T08:16:07.424Z,2.30
2023-01-19T08:19:09.952Z,2.28
2023-01-19T08:22:12.627Z,2.75
2023-01-19T08:25:15.101Z,3.10
2023-01-19T08:28:18.813Z,2.80
2023-01-19T08:31:24.513Z,2.78
2023-01-19T08:34:28.014Z,2.60
2023-01-19T08:37:38.687Z,2.53
2023-01-19T08:40:59.260Z,2.00
2023-01-19T09:15:50.179Z,3.22
2023-01-19T09:18:57.146Z,3.95
2023-01-19T09:33:44.391Z,4.78
2023-01-19T09:36:52.375Z,4.00
2023-01-19T09:39:59.033Z,4.55
2023-01-19T09:52:12.227Z,5.05
2023-01-19T11:15:24.467Z,5.37
2023-01-19T11:18:36.090Z,7.07
2023-01-19T11:21:38.813Z,5.68
2023-01-19T11:24:44.503Z,6.25
2023-01-19T13:13:23.893Z,8.90
2023-01-19T13:16:27.555Z,8.48
2023-01-19T13:19:42.841Z,9.25
2023-01-19T13:22:49.754Z,9.73
2023-01-19T13:25:58.913Z,9.25
2023-01-19T13:29:14.290Z,8.00
2023-01-19T13:32:19.465Z,8.10
2023-01-19T13:35:24.449Z,8.45
2023-01-19T13:38:29.383Z,9.32
2023-01-19T13:41:38.125Z,8.80
2023-01-19T13:44:52.470Z,9.35
2023-01-19T13:47:58.655Z,9.60
2023-01-19T13:51:07.120Z,8.20
2023-01-19T13:54:17.882Z,9.73
2023-01-19T13:57:29.956Z,9.10
2023-01-19T14:00:33.429Z,9.45
2023-01-19T14:03:36.484Z,9.27
2023-01-19T14:06:45.326Z,8.30
2023-01-19T14:10:04.704Z,7.70
2023-01-19T14:13:15.778Z,8.23
2023-01-19T14:16:25.765Z,7.78
2023-01-19T14:19:28.627Z,8.80
2023-01-19T14:22:40.557Z,7.87
2023-01-19T14:25:45.030Z,7.25
2023-01-19T14:28:48.071Z,7.22
2023-01-19T14:32:15.350Z,6.75
2023-01-19T14:35:25.232Z,7.05
2023-01-19T14:38:27.638Z,8.82
2023-01-19T14:41:48.029Z,7.62
2023-01-19T14:44:53.433Z,6.53
2023-01-19T14:48:18.063Z,7.78
2023-01-19T14:51:24.138Z,7.60
2023-01-19T14:54:33.708Z,7.78
2023-01-19T14:57:37.179Z,7.70
2023-01-19T15:00:41.845Z,8.00
2023-01-19T15:03:45.592Z,7.47
2023-01-19T15:06:48.592Z,8.88
2023-01-19T15:09:51.575Z,8.77
2023-01-19T15:12:55.160Z,8.40
2023-01-19T15:15:58.879Z,8.82
2023-01-19T15:19:01.753Z,8.82
2023-01-19T15:22:11.384Z,8.77
2023-01-19T15:25:21.190Z,9.13
2023-01-19T15:31:28.076Z,8.90
2023-01-19T15:34:30.404Z,8.63
2023-01-19T15:37:33.275Z,9.23
2023-01-19T15:40:35.635Z,9.73
2023-01-19T15:43:38.886Z,8.55
2023-01-19T15:46:41.254Z,10.18
2023-01-19T15:49:43.972Z,10.27
2023-01-19T15:52:46.631Z,8.65
2023-01-19T15:55:51.926Z,9.50
2023-01-19T15:58:55.254Z,10.43
2023-01-19T16:01:57.934Z,10.40
2023-01-19T16:05:00.597Z,10.23
2023-01-19T16:08:02.921Z,10.77
2023-01-19T16:11:11.535Z,9.40
2023-01-19T16:14:15.071Z,8.90
2023-01-19T16:17:18.720Z,10.30
2023-01-19T16:20:21.105Z,9.75
2023-01-19T16:23:23.786Z,10.32
2023-01-19T16:26:27.905Z,10.32
2023-01-19T16:29:31.158Z,10.15
2023-01-19T16:32:34.031Z,10.82
2023-01-19T16:35:36.531Z,10.70
2023-01-19T16:38:38.739Z,11.10
2023-01-19T16:41:42.503Z,10.77
2023-01-19T16:44:45.049Z,11.07
2023-01-19T16:47:50.626Z,10.43
2023-01-19T16:51:06.116Z,11.88
2023-01-19T16:54:13.208Z,10.80
2023-01-19T16:57:15.471Z,10.95
2023-01-19T17:00:18.437Z,10.70
2023-01-19T17:03:20.685Z,11.40
2023-01-19T17:06:24.605Z,11.45
2023-01-19T17:09:26.975Z,10.35
2023-01-19T17:12:32.062Z,10.05
2023-01-19T17:15:34.890Z,10.13
2023-01-19T17:18:37.969Z,10.27
2023-01-19T17:21:40.443Z,10.13
2023-01-19T17:24:43.639Z,9.93
2023-01-19T17:27:45.853Z,10.23
2023-01-19T17:30:51.315Z,11.05
2023-01-19T17:33:53.959Z,10.27
2023-01-19T17:37:02.791Z,10.18
2023-01-19T17:40:05.808Z,10.02
2023-01-19T17:43:08.855Z,8.80
2023-01-19T17:46:12.139Z,9.25
2023-01-19T17:49:14.942Z,9.55
2023-01-19T17:52:17.984Z,8.70
2023-01-19T17:55:20.745Z,8.75
2023-01-19T17:58:23.658Z,8.45
2023-01-19T18:01:31.572Z,8.63
2023-01-19T18:04:37.727Z,8.98
2023-01-19T18:07:40.374Z,8.10
2023-01-19T18:10:43.016Z,8.10
2023-01-19T18:13:48.187Z,8.68
2023-01-19T18:16:51.463Z,8.55
2023-01-19T18:19:54.785Z,8.63
2023-01-19T18:22:57.714Z,8.23
2023-01-19T18:26:02.527Z,8.52
2023-01-19T18:29:05.180Z,8.93
2023-01-19T18:32:07.447Z,7.70
2023-01-19T18:35:09.990Z,7.90
2023-01-19T18:38:12.581Z,7.68
2023-01-19T18:41:21.250Z,6.95
2023-01-19T18:44:23.759Z,6.93
2023-01-19T18:47:27.286Z,7.72
2023-01-19T18:50:29.559Z,6.93
2023-01-19T18:53:32.575Z,7.60
2023-01-19T18:56:34.805Z,7.12
2023-01-19T18:59:37.733Z,7.32
2023-01-19T19:02:39.905Z,8.35
2023-01-19T19:05:43.508Z,7.72
2023-01-19T19:08:56.550Z,7.47
2023-01-19T19:11:59.868Z,7.87
2023-01-19T19:15:02.498Z,8.02
2023-01-19T19:18:06.046Z,8.50
2023-01-19T19:21:10.722Z,8.35
2023-01-19T19:24:13.495Z,7.55
2023-01-19T19:27:17.037Z,7.78
2023-01-19T19:30:20.889Z,7.15
2023-01-19T19:33:23.075Z,7.75
2023-01-19T19:36:27.739Z,7.65
2023-01-19T19:39:30.247Z,7.60
2023-01-19T19:42:34.515Z,7.45
2023-01-19T19:45:37.355Z,7.65
2023-01-19T19:48:40.295Z,6.62
2023-01-19T19:51:42.827Z,7.40
2023-01-19T19:54:48.284Z,7.28
2023-01-19T19:57:50.853Z,8.23
2023-01-19T20:00:54.687Z,7.80
2023-01-19T20:03:59.918Z,7.25
2023-01-19T20:07:02.532Z,6.70
2023-01-19T20:10:05.491Z,7.40
2023-01-19T20:13:09.273Z,7.80
2023-01-19T20:16:17.597Z,7.10
2023-01-19T20:19:19.849Z,6.97
2023-01-19T20:22:22.461Z,6.97
2023-01-19T20:25:25.185Z,6.25
2023-01-19T20:28:28.674Z,5.37
2023-01-19T20:31:33.723Z,7.50
2023-01-19T20:34:36.675Z,6.45
2023-01-19T20:37:38.961Z,6.55
2023-01-19T20:40:41.597Z,5.37
2023-01-19T20:43:43.991Z,6.07
2023-01-19T20:46:46.665Z,5.62
2023-01-19T20:49:48.932Z,6.07
2023-01-19T20:52:51.745Z,6.57
2023-01-19T20:55:54.222Z,6.87
2023-01-19T20:58:58.935Z,6.40
2023-01-19T21:02:01.144Z,7.20
2023-01-19T21:05:04.003Z,6.85
2023-01-19T21:08:06.308Z,6.65
2023-01-19T21:11:09.405Z,6.07
2023-01-19T21:14:12.023Z,6.30
2023-01-19T21:17:16.873Z,6.18
2023-01-19T21:20:19.486Z,6.75
2023-01-19T21:23:22.304Z,6.65
2023-01-19T21:26:24.668Z,7.07
2023-01-19T21:29:27.638Z,7.12
2023-01-19T21:32:29.811Z,7.00
2023-01-19T21:35:32.493Z,6.82
2023-01-19T21:38:36.263Z,6.93
2023-01-19T21:41:40.268Z,7.55
2023-01-19T21:44:42.559Z,6.97
2023-01-19T21:47:45.075Z,7.07
2023-01-19T21:50:57.043Z,7.70
2023-01-19T21:54:00.423Z,7.43
2023-01-19T21:57:03.102Z,7.47
2023-01-19T22:00:06.583Z,7.65
2023-01-19T22:03:10.197Z,6.50
2023-01-19T22:06:14.170Z,6.75
2023-01-19T22:09:16.506Z,6.78
2023-01-19T22:12:19.032Z,6.50
2023-01-19T22:15:21.326Z,6.60
2023-01-19T22:18:24.291Z,6.78
2023-01-19T22:21:30.783Z,6.37
2023-01-19T22:24:33.313Z,6.55
2023-01-19T22:27:37.410Z,7.03
2023-01-19T22:30:40.356Z,6.53
2023-01-19T22:33:43.127Z,6.80
2023-01-19T22:36:46.039Z,7.45
2023-01-19T22:39:48.315Z,7.50
2023-01-19T22:42:50.983Z,6.50
2023-01-19T22:45:53.224Z,6.78
2023-01-19T22:48:56.525Z,6.28
2023-01-19T22:51:58.848Z,5.60
2023-01-19T22:55:01.359Z,6.10
2023-01-19T22:58:03.531Z,6.00
2023-01-19T23:01:20.061Z,6.37
2023-01-19T23:04:22.465Z,6.43
2023-01-19T23:07:25.411Z,6.80
2023-01-19T23:10:28.076Z,6.55
2023-01-19T23:13:30.585Z,6.53
2023-01-19T23:16:34.071Z,5.07
2023-01-19T23:19:36.678Z,6.03
2023-01-19T23:22:39.859Z,6.95
2023-01-19T23:25:42.730Z,5.82
2023-01-19T23:28:46.326Z,6.57
2023-01-19T23:31:49.658Z,6.43
2023-01-19T23:34:52.373Z,6.35
2023-01-19T23:37:55.442Z,6.07
2023-01-19T23:40:57.888Z,6.18
2023-01-19T23:44:01.239Z,6.37
2023-01-19T23:47:04.065Z,6.45
2023-01-19T23:50:07.538Z,7.32
2023-01-19T23:53:10.104Z,6.82
2023-01-19T23:56:19.717Z,7.20
2023-01-19T23:59:21.905Z,6.68
